createdAt,value
2022-10-18T00:00:22.333Z,15.90
2022-10-18T00:01:22.344Z,15.87
2022-10-18T00:02:22.375Z,15.88
2022-10-18T00:03:22.286Z,15.87
2022-10-18T00:04:22.286Z,15.88
2022-10-18T00:05:22.276Z,15.85
2022-10-18T00:06:22.285Z,15.88
2022-10-18T00:07:22.265Z,15.88
2022-10-18T00:08:22.244Z,15.88
2022-10-18T00:09:22.226Z,15.88
2022-10-18T00:10:22.235Z,15.90
2022-10-18T00:11:22.290Z,15.87
2022-10-18T00:12:22.200Z,15.90
2022-10-18T00:13:22.188Z,15.90
2022-10-18T00:14:22.304Z,15.91
2022-10-18T00:15:22.164Z,15.88
2022-10-18T00:16:22.170Z,15.92
2022-10-18T00:17:22.143Z,15.91
2022-10-18T00:18:22.153Z,15.91
2022-10-18T00:19:25.836Z,15.91
2022-10-18T00:20:23.126Z,15.92
2022-10-18T00:21:22.120Z,15.91
2022-10-18T00:22:22.095Z,15.92
2022-10-18T00:23:22.085Z,15.92
2022-10-18T00:24:22.066Z,15.91
2022-10-18T00:25:22.055Z,15.94
2022-10-18T00:26:22.057Z,15.96
2022-10-18T00:27:22.053Z,15.92
2022-10-18T00:28:22.029Z,15.94
2022-10-18T00:29:22.020Z,15.94
2022-10-18T00:30:22.006Z,15.94
2022-10-18T00:31:22.014Z,15.90
2022-10-18T00:32:21.976Z,15.94
2022-10-18T00:33:22.005Z,15.94
2022-10-18T00:34:21.957Z,15.94
2022-10-18T00:35:21.975Z,15.92
2022-10-18T00:36:21.950Z,15.91
2022-10-18T00:37:21.924Z,15.94
2022-10-18T00:38:21.916Z,15.96
2022-10-18T00:39:21.904Z,15.94
2022-10-18T00:40:21.895Z,15.96
2022-10-18T00:41:21.885Z,15.94
2022-10-18T00:42:21.874Z,15.96
2022-10-18T00:43:21.908Z,15.94
2022-10-18T00:44:21.866Z,15.96
2022-10-18T00:45:21.849Z,15.96
2022-10-18T00:46:21.845Z,15.96
2022-10-18T00:47:21.834Z,15.92
2022-10-18T00:48:21.805Z,15.96
2022-10-18T00:49:21.786Z,15.96
2022-10-18T00:50:21.787Z,15.96
2022-10-18T00:51:21.787Z,15.92
2022-10-18T00:52:21.767Z,15.94
2022-10-18T00:53:21.760Z,15.94
2022-10-18T00:54:21.756Z,15.94
2022-10-18T00:55:21.726Z,15.91
2022-10-18T00:56:21.755Z,15.91
2022-10-18T00:57:21.717Z,15.91
2022-10-18T00:58:21.703Z,15.92
2022-10-18T00:59:21.686Z,15.92
2022-10-18T01:00:21.684Z,15.91
2022-10-18T01:01:24.523Z,15.91
2022-10-18T01:02:22.668Z,15.92
2022-10-18T01:03:21.646Z,15.90
2022-10-18T01:04:21.643Z,15.92
2022-10-18T01:05:21.623Z,15.91
2022-10-18T01:06:21.631Z,15.90
2022-10-18T01:07:21.618Z,15.88
2022-10-18T01:08:21.649Z,15.90
2022-10-18T01:09:21.587Z,15.90
2022-10-18T01:10:21.576Z,15.88
2022-10-18T01:11:21.566Z,15.88
2022-10-18T01:12:21.555Z,15.85
2022-10-18T01:13:24.865Z,15.87
2022-10-18T01:14:21.536Z,15.88
2022-10-18T01:15:21.516Z,15.85
2022-10-18T01:16:21.526Z,15.88
2022-10-18T01:17:21.506Z,15.87
2022-10-18T01:18:21.497Z,15.87
2022-10-18T01:19:21.516Z,15.87
2022-10-18T01:20:21.476Z,15.85
2022-10-18T01:21:21.466Z,15.85
2022-10-18T01:22:21.436Z,15.85
2022-10-18T01:23:21.438Z,15.85
2022-10-18T01:24:21.429Z,15.85
2022-10-18T01:25:21.467Z,15.85
2022-10-18T01:26:21.407Z,15.85
2022-10-18T01:27:21.394Z,15.87
2022-10-18T01:28:21.378Z,15.85
2022-10-18T01:29:21.379Z,15.85
2022-10-18T01:30:21.346Z,15.87
2022-10-18T01:31:21.349Z,15.87
2022-10-18T01:32:21.346Z,15.83
2022-10-18T01:33:21.336Z,15.87
2022-10-18T01:34:21.318Z,15.85
2022-10-18T01:35:21.306Z,15.85
2022-10-18T01:36:21.289Z,15.85
2022-10-18T01:37:21.294Z,15.85
2022-10-18T01:38:21.295Z,15.84
2022-10-18T01:39:21.266Z,15.83
2022-10-18T01:40:21.246Z,15.84
2022-10-18T01:41:21.240Z,15.83
2022-10-18T01:42:21.226Z,15.83
2022-10-18T01:43:21.216Z,15.83
2022-10-18T01:44:21.199Z,15.85
2022-10-18T01:45:21.198Z,15.84
2022-10-18T01:46:21.192Z,15.85
2022-10-18T01:47:21.187Z,15.83
2022-10-18T01:48:21.165Z,15.83
2022-10-18T01:49:21.156Z,15.83
2022-10-18T01:50:21.137Z,15.83
2022-10-18T01:51:21.128Z,15.83
2022-10-18T01:52:21.138Z,15.85
2022-10-18T01:53:21.104Z,15.84
2022-10-18T01:54:21.087Z,15.84
2022-10-18T01:55:21.107Z,15.83
2022-10-18T01:56:21.084Z,15.84
2022-10-18T01:57:21.076Z,15.83
2022-10-18T01:58:21.047Z,15.83
2022-10-18T01:59:21.036Z,15.80
2022-10-18T02:00:21.025Z,15.83
2022-10-18T02:01:21.036Z,15.80
2022-10-18T02:02:21.017Z,15.84
2022-10-18T02:03:20.997Z,15.81
2022-10-18T02:04:20.985Z,15.83
2022-10-18T02:05:20.977Z,15.81
2022-10-18T02:06:20.958Z,15.83
2022-10-18T02:07:20.976Z,15.81
2022-10-18T02:08:24.212Z,15.81
2022-10-18T02:09:20.938Z,15.81
2022-10-18T02:10:20.915Z,15.83
2022-10-18T02:11:20.907Z,15.81
2022-10-18T02:12:20.906Z,15.81
2022-10-18T02:13:20.917Z,15.80
2022-10-18T02:14:20.878Z,15.80
2022-10-18T02:15:20.866Z,15.81
2022-10-18T02:16:20.855Z,15.83
2022-10-18T02:17:20.856Z,15.80
2022-10-18T02:18:20.830Z,15.83
2022-10-18T02:19:20.886Z,15.78
2022-10-18T02:20:20.815Z,15.81
2022-10-18T02:21:20.808Z,15.80
2022-10-18T02:22:20.797Z,15.80
2022-10-18T02:23:20.777Z,15.81
2022-10-18T02:24:20.766Z,15.80
2022-10-18T02:25:20.764Z,15.78
2022-10-18T02:26:20.748Z,15.81
2022-10-18T02:27:20.757Z,15.78
2022-10-18T02:28:20.771Z,15.80
2022-10-18T02:29:20.718Z,15.80
2022-10-18T02:30:20.707Z,15.81
2022-10-18T02:31:20.696Z,15.80
2022-10-18T02:32:20.694Z,15.83
2022-10-18T02:33:20.747Z,15.81
2022-10-18T02:34:20.655Z,15.81
2022-10-18T02:35:20.657Z,15.78
2022-10-18T02:36:20.637Z,15.81
2022-10-18T02:37:20.684Z,15.83
2022-10-18T02:38:20.616Z,15.81
2022-10-18T02:39:20.606Z,15.81
2022-10-18T02:40:20.589Z,15.84
2022-10-18T02:41:20.591Z,15.81
2022-10-18T02:42:20.578Z,15.83
2022-10-18T02:43:20.575Z,15.81
2022-10-18T02:44:20.547Z,15.84
2022-10-18T02:45:20.547Z,15.83
2022-10-18T02:46:20.594Z,15.83
2022-10-18T02:47:20.530Z,15.81
2022-10-18T02:48:20.518Z,15.83
2022-10-18T02:49:20.511Z,15.81
2022-10-18T02:50:20.515Z,15.84
2022-10-18T02:51:20.477Z,15.80
2022-10-18T02:52:20.465Z,15.85
2022-10-18T02:53:20.475Z,15.84
2022-10-18T02:54:20.448Z,15.84
2022-10-18T02:55:20.471Z,15.84
2022-10-18T02:56:20.416Z,15.83
2022-10-18T02:57:20.407Z,15.84
2022-10-18T02:58:20.417Z,15.87
2022-10-18T02:59:20.400Z,15.84
2022-10-18T03:00:20.376Z,15.87
2022-10-18T03:01:20.412Z,15.87
2022-10-18T03:02:20.397Z,15.84
2022-10-18T03:03:20.357Z,15.87
2022-10-18T03:04:20.356Z,15.85
2022-10-18T03:05:20.327Z,15.85
2022-10-18T03:06:20.307Z,15.88
2022-10-18T03:07:20.306Z,15.85
2022-10-18T03:08:20.297Z,15.88
2022-10-18T03:09:20.278Z,15.87
2022-10-18T03:10:20.269Z,15.87
2022-10-18T03:11:20.257Z,15.85
2022-10-18T03:12:20.256Z,15.88
2022-10-18T03:13:20.384Z,15.87
2022-10-18T03:14:20.231Z,15.88
2022-10-18T03:15:20.296Z,15.87
2022-10-18T03:16:20.199Z,15.87
2022-10-18T03:17:20.197Z,15.85
2022-10-18T03:18:20.196Z,15.90
2022-10-18T03:19:20.169Z,15.87
2022-10-18T03:20:20.149Z,15.87
2022-10-18T03:21:20.160Z,15.88
2022-10-18T03:22:20.197Z,15.88
2022-10-18T03:23:20.157Z,15.88
2022-10-18T03:24:20.118Z,15.88
2022-10-18T03:25:20.119Z,15.90
2022-10-18T03:26:20.089Z,15.90
2022-10-18T03:27:20.108Z,15.88
2022-10-18T03:28:20.077Z,15.91
2022-10-18T03:29:20.066Z,15.88
2022-10-18T03:30:20.048Z,15.87
2022-10-18T03:31:20.077Z,15.88
2022-10-18T03:32:21.279Z,15.90
2022-10-18T03:33:20.176Z,15.91
2022-10-18T03:34:20.003Z,15.91
2022-10-18T03:35:20.077Z,15.88
2022-10-18T03:36:19.986Z,15.91
2022-10-18T03:37:19.989Z,15.91
2022-10-18T03:38:19.969Z,15.91
2022-10-18T03:39:19.968Z,15.91
2022-10-18T03:40:19.953Z,15.92
2022-10-18T03:41:19.949Z,15.91
2022-10-18T03:42:19.918Z,15.90
2022-10-18T03:43:19.919Z,15.90
2022-10-18T03:44:19.888Z,15.90
2022-10-18T03:45:19.888Z,15.91
2022-10-18T03:46:19.886Z,15.90
2022-10-18T03:47:19.858Z,15.91
2022-10-18T03:48:19.902Z,15.92
2022-10-18T03:49:19.953Z,15.90
2022-10-18T03:50:19.833Z,15.91
2022-10-18T03:51:19.848Z,15.90
2022-10-18T03:52:19.806Z,15.92
2022-10-18T03:53:19.834Z,15.91
2022-10-18T03:54:19.836Z,15.91
2022-10-18T03:55:19.780Z,15.91
2022-10-18T03:56:19.759Z,15.91
2022-10-18T03:57:19.758Z,15.92
2022-10-18T03:58:19.817Z,15.92
2022-10-18T03:59:19.790Z,15.91
2022-10-18T04:00:19.728Z,15.92
2022-10-18T04:01:19.761Z,15.92
2022-10-18T04:02:19.738Z,15.92
2022-10-18T04:03:19.731Z,15.91
2022-10-18T04:04:19.701Z,15.92
2022-10-18T04:05:19.685Z,15.92
2022-10-18T04:06:19.687Z,15.91
2022-10-18T04:07:19.649Z,15.92
2022-10-18T04:08:19.646Z,15.92
2022-10-18T04:09:19.638Z,15.94
2022-10-18T04:10:19.627Z,15.94
2022-10-18T04:11:19.609Z,15.92
2022-10-18T04:12:19.583Z,15.92
2022-10-18T04:13:19.640Z,15.94
2022-10-18T04:14:19.638Z,15.92
2022-10-18T04:15:19.559Z,15.96
2022-10-18T04:16:19.550Z,15.92
2022-10-18T04:17:19.561Z,15.92
2022-10-18T04:18:19.570Z,15.92
2022-10-18T04:19:19.575Z,15.91
2022-10-18T04:20:19.499Z,15.92
2022-10-18T04:21:19.500Z,15.92
2022-10-18T04:22:19.489Z,15.91
2022-10-18T04:23:19.475Z,15.92
2022-10-18T04:24:19.473Z,15.91
2022-10-18T04:25:19.449Z,15.92
2022-10-18T04:26:19.493Z,15.94
2022-10-18T04:27:19.427Z,15.91
2022-10-18T04:28:19.428Z,15.92
2022-10-18T04:29:19.411Z,15.91
2022-10-18T04:30:19.400Z,15.96
2022-10-18T04:31:19.407Z,15.91
2022-10-18T04:32:19.369Z,15.92
2022-10-18T04:33:19.358Z,15.91
2022-10-18T04:34:19.360Z,15.94
2022-10-18T04:35:19.349Z,15.92
2022-10-18T04:36:19.319Z,15.92
2022-10-18T04:37:19.320Z,15.92
2022-10-18T04:38:19.306Z,15.96
2022-10-18T04:39:19.308Z,15.92
2022-10-18T04:40:19.305Z,15.91
2022-10-18T04:41:19.279Z,15.92
2022-10-18T04:42:19.289Z,15.94
2022-10-18T04:43:19.262Z,15.92
2022-10-18T04:44:19.255Z,15.92
2022-10-18T04:45:19.242Z,15.92
2022-10-18T04:46:19.222Z,15.92
2022-10-18T04:47:19.209Z,15.92
2022-10-18T04:48:19.200Z,15.92
2022-10-18T04:49:19.190Z,15.94
2022-10-18T04:50:19.197Z,15.94
2022-10-18T04:51:19.168Z,15.91
2022-10-18T04:52:19.151Z,15.92
2022-10-18T04:53:19.148Z,15.92
2022-10-18T04:54:19.153Z,15.94
2022-10-18T04:55:19.128Z,15.94
2022-10-18T04:56:19.108Z,15.92
2022-10-18T04:57:19.116Z,15.94
2022-10-18T04:58:19.100Z,15.92
2022-10-18T04:59:19.079Z,15.92
2022-10-18T05:00:19.079Z,15.92
2022-10-18T05:01:19.166Z,15.91
2022-10-18T05:02:19.049Z,15.91
2022-10-18T05:03:19.038Z,15.92
2022-10-18T05:04:19.019Z,15.92
2022-10-18T05:05:19.029Z,15.92
2022-10-18T05:06:18.999Z,15.92
2022-10-18T05:07:19.068Z,15.90
2022-10-18T05:08:18.989Z,15.92
2022-10-18T05:09:18.992Z,15.91
2022-10-18T05:10:19.040Z,15.92
2022-10-18T05:11:18.975Z,15.91
2022-10-18T05:12:18.929Z,15.92
2022-10-18T05:13:18.942Z,15.90
2022-10-18T05:14:18.925Z,15.91
2022-10-18T05:15:18.922Z,15.90
2022-10-18T05:16:18.899Z,15.92
2022-10-18T05:17:18.889Z,15.90
2022-10-18T05:18:18.911Z,15.90
2022-10-18T05:19:18.927Z,15.90
2022-10-18T05:20:18.859Z,15.91
2022-10-18T05:21:18.839Z,15.90
2022-10-18T05:22:18.821Z,15.90
2022-10-18T05:23:18.829Z,15.90
2022-10-18T05:24:19.631Z,15.88
2022-10-18T05:25:18.797Z,15.88
2022-10-18T05:26:18.828Z,15.88
2022-10-18T05:27:18.780Z,15.90
2022-10-18T05:28:38.794Z,15.90
2022-10-18T05:29:19.896Z,15.87
2022-10-18T05:30:18.757Z,15.87
2022-10-18T05:31:18.760Z,15.85
2022-10-18T05:32:18.768Z,15.87
2022-10-18T05:33:18.749Z,15.88
2022-10-18T05:34:18.722Z,15.87
2022-10-18T05:35:18.690Z,15.84
2022-10-18T05:36:18.689Z,15.83
2022-10-18T05:37:18.679Z,15.81
2022-10-18T05:38:18.703Z,15.83
2022-10-18T05:39:18.699Z,15.83
2022-10-18T05:40:18.694Z,15.80
2022-10-18T05:41:18.671Z,15.80
2022-10-18T05:42:18.620Z,15.80
2022-10-18T05:43:18.625Z,15.78
2022-10-18T05:44:18.649Z,15.78
2022-10-18T05:45:18.619Z,15.78
2022-10-18T05:46:18.620Z,15.78
2022-10-18T05:47:18.562Z,15.75
2022-10-18T05:48:18.554Z,15.73
2022-10-18T05:49:18.555Z,15.73
2022-10-18T05:50:18.540Z,15.73
2022-10-18T05:51:18.529Z,15.70
2022-10-18T05:52:18.559Z,15.70
2022-10-18T05:53:35.785Z,15.70
2022-10-18T05:54:19.553Z,15.69
2022-10-18T05:55:18.559Z,15.72
2022-10-18T05:56:18.462Z,15.70
2022-10-18T05:57:18.439Z,15.72
2022-10-18T05:58:18.446Z,15.70
2022-10-18T05:59:18.453Z,15.69
2022-10-18T06:00:18.433Z,15.72
2022-10-18T06:01:18.410Z,15.72
2022-10-18T06:02:18.448Z,15.70
2022-10-18T06:03:18.390Z,15.72
2022-10-18T06:04:18.412Z,15.69
2022-10-18T06:05:18.359Z,15.73
2022-10-18T06:06:18.359Z,15.72
2022-10-18T06:07:18.349Z,15.72
2022-10-18T06:08:18.346Z,15.72
2022-10-18T06:09:18.330Z,15.73
2022-10-18T06:10:18.329Z,15.76
2022-10-18T06:11:18.289Z,15.73
2022-10-18T06:12:18.293Z,15.76
2022-10-18T06:13:18.628Z,15.76
2022-10-18T06:14:18.293Z,15.78
2022-10-18T06:15:18.273Z,15.76
2022-10-18T06:16:18.360Z,15.78
2022-10-18T06:17:18.231Z,15.76
2022-10-18T06:18:18.246Z,15.81
2022-10-18T06:19:18.219Z,15.78
2022-10-18T06:20:18.200Z,15.81
2022-10-18T06:21:18.180Z,15.80
2022-10-18T06:22:18.189Z,15.83
2022-10-18T06:23:18.161Z,15.83
2022-10-18T06:24:18.170Z,15.84
2022-10-18T06:25:18.231Z,15.85
2022-10-18T06:26:19.011Z,15.85
2022-10-18T06:27:18.186Z,15.88
2022-10-18T06:28:18.129Z,15.90
2022-10-18T06:29:18.111Z,15.88
2022-10-18T06:30:18.216Z,15.90
2022-10-18T06:31:18.082Z,15.91
2022-10-18T06:32:18.120Z,15.92
2022-10-18T06:33:19.148Z,15.94
2022-10-18T06:34:20.625Z,15.94
2022-10-18T06:35:18.030Z,15.94
2022-10-18T06:36:18.031Z,15.99
2022-10-18T06:37:18.021Z,15.99
2022-10-18T06:38:18.015Z,16.00
2022-10-18T06:39:18.003Z,16.00
2022-10-18T06:40:18.020Z,16.02
2022-10-18T06:41:17.988Z,16.02
2022-10-18T06:42:20.420Z,16.03
2022-10-18T06:43:21.059Z,16.05
2022-10-18T06:44:17.950Z,16.06
2022-10-18T06:45:17.940Z,16.05
2022-10-18T06:46:18.028Z,16.03
2022-10-18T06:47:17.900Z,16.00
2022-10-18T06:49:19.192Z,16.02
2022-10-18T06:50:17.893Z,16.03
2022-10-18T06:51:17.851Z,16.02
2022-10-18T06:52:17.851Z,16.05
2022-10-18T06:53:17.990Z,16.03
2022-10-18T06:54:18.940Z,16.06
2022-10-18T06:55:17.812Z,16.03
2022-10-18T06:56:17.800Z,16.05
2022-10-18T06:57:17.810Z,16.06
2022-10-18T06:58:17.781Z,16.06
2022-10-18T06:59:17.779Z,16.08
2022-10-18T07:00:17.763Z,16.09
2022-10-18T07:01:17.834Z,16.09
2022-10-18T07:02:17.769Z,16.10
2022-10-18T07:03:17.753Z,16.12
2022-10-18T07:04:17.720Z,16.13
2022-10-18T07:05:17.743Z,16.13
2022-10-18T07:06:17.720Z,16.16
2022-10-18T07:07:17.703Z,16.16
2022-10-18T07:08:17.704Z,16.16
2022-10-18T07:09:17.660Z,16.13
2022-10-18T07:10:17.660Z,16.17
2022-10-18T07:11:17.711Z,16.12
2022-10-18T07:12:17.633Z,16.16
2022-10-18T07:13:31.951Z,16.16
2022-10-18T07:14:18.621Z,16.16
2022-10-18T07:15:17.609Z,16.13
2022-10-18T07:16:18.736Z,16.17
2022-10-18T07:17:17.631Z,16.16
2022-10-18T07:18:17.606Z,16.18
2022-10-18T07:19:17.550Z,16.18
2022-10-18T07:20:17.612Z,16.22
2022-10-18T07:21:17.540Z,16.24
2022-10-18T07:22:17.521Z,16.22
2022-10-18T07:23:17.532Z,16.24
2022-10-18T07:24:17.545Z,16.25
2022-10-18T07:25:17.508Z,16.24
2022-10-18T07:26:17.492Z,16.26
2022-10-18T07:27:17.541Z,16.24
2022-10-18T07:28:18.161Z,16.26
2022-10-18T07:29:17.500Z,16.25
2022-10-18T07:30:17.451Z,16.25
2022-10-18T07:31:17.463Z,16.28
2022-10-18T07:32:17.417Z,16.29
2022-10-18T07:33:17.394Z,16.28
2022-10-18T07:34:17.441Z,16.31
2022-10-18T07:35:17.392Z,16.37
2022-10-18T07:36:17.390Z,16.50
2022-10-18T07:37:17.371Z,16.65
2022-10-18T07:38:17.400Z,16.87
2022-10-18T07:39:17.402Z,16.99
2022-10-18T07:40:17.378Z,17.04
2022-10-18T07:41:17.330Z,17.05
2022-10-18T07:42:17.321Z,17.09
2022-10-18T07:43:17.341Z,17.09
2022-10-18T07:44:17.321Z,17.13
2022-10-18T07:45:17.373Z,17.16
2022-10-18T07:46:17.375Z,17.20
2022-10-18T07:47:17.329Z,17.22
2022-10-18T07:48:17.293Z,17.20
2022-10-18T07:49:17.401Z,17.17
2022-10-18T07:50:17.295Z,17.14
2022-10-18T07:51:17.292Z,17.10
2022-10-18T07:52:17.264Z,17.07
2022-10-18T07:53:17.306Z,17.05
2022-10-18T07:54:17.221Z,17.04
2022-10-18T07:55:17.202Z,17.02
2022-10-18T07:56:17.206Z,16.99
2022-10-18T07:57:17.215Z,16.97
2022-10-18T07:58:17.180Z,16.97
2022-10-18T07:59:17.180Z,16.94
2022-10-18T08:00:17.141Z,16.92
2022-10-18T08:01:17.210Z,16.91
2022-10-18T08:02:17.134Z,16.89
2022-10-18T08:03:17.122Z,16.91
2022-10-18T08:04:17.123Z,16.92
2022-10-18T08:05:17.090Z,16.92
2022-10-18T08:06:17.101Z,16.94
2022-10-18T08:07:17.071Z,16.92
2022-10-18T08:08:17.052Z,16.91
2022-10-18T08:09:17.051Z,16.91
2022-10-18T08:10:17.041Z,16.92
2022-10-18T08:11:17.053Z,16.92
2022-10-18T08:12:17.053Z,16.94
2022-10-18T08:13:16.991Z,16.99
2022-10-18T08:14:17.000Z,17.02
2022-10-18T08:15:17.024Z,17.02
2022-10-18T08:16:16.971Z,17.02
2022-10-18T08:17:16.970Z,17.04
2022-10-18T08:18:16.950Z,17.01
2022-10-18T08:19:16.956Z,17.02
2022-10-18T08:20:29.906Z,17.02
2022-10-18T08:21:17.918Z,17.04
2022-10-18T08:22:16.900Z,17.04
2022-10-18T08:23:16.910Z,17.04
2022-10-18T08:24:16.880Z,17.05
2022-10-18T08:25:16.871Z,17.10
2022-10-18T08:26:16.871Z,17.19
2022-10-18T08:27:16.855Z,17.28
2022-10-18T08:28:16.858Z,17.39
2022-10-18T08:29:27.962Z,17.47
2022-10-18T08:30:17.916Z,17.59
2022-10-18T08:31:16.781Z,17.65
2022-10-18T08:32:16.792Z,17.72
2022-10-18T08:33:16.763Z,17.71
2022-10-18T08:34:19.690Z,17.73
2022-10-18T08:35:16.768Z,17.76
2022-10-18T08:36:16.746Z,17.79
2022-10-18T08:37:16.711Z,17.87
2022-10-18T08:38:18.901Z,18.03
2022-10-18T08:39:16.716Z,18.16
2022-10-18T08:40:16.693Z,18.30
2022-10-18T08:41:16.676Z,18.37
2022-10-18T08:42:16.673Z,18.49
2022-10-18T08:43:21.387Z,18.53
2022-10-18T08:44:17.699Z,18.55
2022-10-18T08:45:30.076Z,18.55
2022-10-18T08:46:17.625Z,18.55
2022-10-18T08:47:16.618Z,18.53
2022-10-18T08:48:16.615Z,18.57
2022-10-18T08:49:16.580Z,18.61
2022-10-18T08:50:16.599Z,18.64
2022-10-18T08:51:16.572Z,18.68
2022-10-18T08:52:16.562Z,18.71
2022-10-18T08:53:16.534Z,18.68
2022-10-18T08:54:16.557Z,18.70
2022-10-18T08:55:16.523Z,18.66
2022-10-18T08:56:16.537Z,18.67
2022-10-18T08:57:16.532Z,18.73
2022-10-18T08:58:16.515Z,18.82
2022-10-18T08:59:16.472Z,18.85
2022-10-18T09:00:16.472Z,18.86
2022-10-18T09:01:16.488Z,18.82
2022-10-18T09:02:16.477Z,18.81
2022-10-18T09:03:16.586Z,18.79
2022-10-18T09:04:16.441Z,18.81
2022-10-18T09:05:16.452Z,18.79
2022-10-18T09:06:19.790Z,18.83
2022-10-18T09:07:17.443Z,18.81
2022-10-18T09:08:16.413Z,18.85
2022-10-18T09:09:16.382Z,18.88
2022-10-18T09:10:16.372Z,18.85
2022-10-18T09:11:16.336Z,18.86
2022-10-18T09:12:16.324Z,18.88
2022-10-18T09:13:16.330Z,18.85
2022-10-18T09:14:16.304Z,18.82
2022-10-18T09:15:16.325Z,18.82
2022-10-18T09:16:16.285Z,18.92
2022-10-18T09:17:16.437Z,19.00
2022-10-18T09:18:16.304Z,19.12
2022-10-18T09:19:16.253Z,19.20
2022-10-18T09:20:16.349Z,19.37
2022-10-18T09:21:16.283Z,19.48
2022-10-18T09:22:16.222Z,19.63
2022-10-18T09:23:16.223Z,19.60
2022-10-18T09:24:16.196Z,19.66
2022-10-18T09:25:16.182Z,19.63
2022-10-18T09:26:16.174Z,19.59
2022-10-18T09:27:16.152Z,19.59
2022-10-18T09:28:16.167Z,19.81
2022-10-18T09:29:16.334Z,19.99
2022-10-18T09:30:16.133Z,20.04
2022-10-18T09:31:16.112Z,19.97
2022-10-18T09:32:16.135Z,19.89
2022-10-18T09:33:16.092Z,19.81
2022-10-18T09:34:16.093Z,19.89
2022-10-18T09:35:16.132Z,19.79
2022-10-18T09:36:16.078Z,19.74
2022-10-18T09:37:16.044Z,20.26
2022-10-18T09:38:16.189Z,20.85
2022-10-18T09:39:16.037Z,21.19
2022-10-18T09:40:18.853Z,21.37
2022-10-18T09:41:16.003Z,21.44
2022-10-18T09:42:16.013Z,21.38
2022-10-18T09:43:15.993Z,21.11
2022-10-18T09:44:15.975Z,20.96
2022-10-18T09:45:15.964Z,20.89
2022-10-18T09:46:15.961Z,20.68
2022-10-18T09:47:16.935Z,20.58
2022-10-18T09:48:15.975Z,20.55
2022-10-18T09:49:16.424Z,20.49
2022-10-18T09:50:15.943Z,20.49
2022-10-18T09:51:15.915Z,20.49
2022-10-18T09:52:15.885Z,20.42
2022-10-18T09:53:15.928Z,20.29
2022-10-18T09:54:15.864Z,20.26
2022-10-18T09:55:15.918Z,20.21
2022-10-18T09:56:15.907Z,20.12
2022-10-18T09:57:15.921Z,20.07
2022-10-18T09:58:15.835Z,19.99
2022-10-18T09:59:15.898Z,20.00
2022-10-18T10:00:15.884Z,20.07
2022-10-18T10:01:15.804Z,20.08
2022-10-18T10:02:15.859Z,20.11
2022-10-18T10:03:15.791Z,20.18
2022-10-18T10:04:15.764Z,20.22
2022-10-18T10:05:15.810Z,20.29
2022-10-18T10:06:15.779Z,20.30
2022-10-18T10:07:15.724Z,20.22
2022-10-18T10:08:15.774Z,20.26
2022-10-18T10:09:15.718Z,20.33
2022-10-18T10:10:15.747Z,20.39
2022-10-18T10:11:15.696Z,20.37
2022-10-18T10:12:15.681Z,20.36
2022-10-18T10:13:15.664Z,20.42
2022-10-18T10:15:15.761Z,20.63
2022-10-18T10:16:15.636Z,20.63
2022-10-18T10:17:15.635Z,20.50
2022-10-18T10:18:15.639Z,20.42
2022-10-18T10:19:15.624Z,20.33
2022-10-18T10:20:15.594Z,20.26
2022-10-18T10:21:15.743Z,20.15
2022-10-18T10:22:15.597Z,20.07
2022-10-18T10:23:15.608Z,20.02
2022-10-18T10:24:15.565Z,20.10
2022-10-18T10:25:15.576Z,20.27
2022-10-18T10:26:15.523Z,20.37
2022-10-18T10:27:15.535Z,20.52
2022-10-18T10:28:15.559Z,20.50
2022-10-18T10:29:17.698Z,20.40
2022-10-18T10:30:16.485Z,20.33
2022-10-18T10:31:15.555Z,20.27
2022-10-18T10:32:15.674Z,20.27
2022-10-18T10:33:15.449Z,20.33
2022-10-18T10:34:15.472Z,20.46
2022-10-18T10:35:22.777Z,20.74
2022-10-18T10:36:16.596Z,21.28
2022-10-18T10:37:15.428Z,21.74
2022-10-18T10:38:15.390Z,22.14
2022-10-18T10:39:15.429Z,22.38
2022-10-18T10:40:19.782Z,22.49
2022-10-18T10:41:16.358Z,22.62
2022-10-18T10:42:15.428Z,22.86
2022-10-18T10:43:32.920Z,23.02
2022-10-18T10:44:16.396Z,23.10
2022-10-18T10:45:15.320Z,23.17
2022-10-18T10:46:15.455Z,23.16
2022-10-18T10:47:15.311Z,23.02
2022-10-18T10:48:15.279Z,22.86
2022-10-18T10:49:38.601Z,22.89
2022-10-18T10:50:16.270Z,22.96
2022-10-18T10:51:15.268Z,23.04
2022-10-18T10:52:26.921Z,23.07
2022-10-18T10:53:16.291Z,23.10
2022-10-18T10:54:15.240Z,23.21
2022-10-18T10:55:34.146Z,23.17
2022-10-18T10:56:16.209Z,22.96
2022-10-18T10:57:15.221Z,22.74
2022-10-18T10:58:15.182Z,22.53
2022-10-18T10:59:15.221Z,22.22
2022-10-18T11:00:15.168Z,21.91
2022-10-18T11:01:15.153Z,21.69
2022-10-18T11:02:15.261Z,21.56
2022-10-18T11:03:28.490Z,21.47
2022-10-18T11:04:16.274Z,21.47
2022-10-18T11:05:15.154Z,21.69
2022-10-18T11:06:22.220Z,22.25
2022-10-18T11:07:15.077Z,22.73
2022-10-18T11:08:15.072Z,23.20
2022-10-18T11:09:15.094Z,23.58
2022-10-18T11:10:15.056Z,24.04
2022-10-18T11:11:16.958Z,24.01
2022-10-18T11:12:15.033Z,23.34
2022-10-18T11:13:15.034Z,23.89
2022-10-18T11:14:25.174Z,23.55
2022-10-18T11:15:15.994Z,23.47
2022-10-18T11:16:14.983Z,22.91
2022-10-18T11:17:14.972Z,22.47
2022-10-18T11:18:14.976Z,22.14
2022-10-18T11:19:14.973Z,21.84
2022-10-18T11:20:14.933Z,21.63
2022-10-18T11:21:14.931Z,21.51
2022-10-18T11:22:14.913Z,22.68
2022-10-18T11:23:14.905Z,24.46
2022-10-18T11:24:14.901Z,25.89
2022-10-18T11:25:14.908Z,26.92
2022-10-18T11:26:14.873Z,27.68
2022-10-18T11:27:14.894Z,28.09
2022-10-18T11:28:14.844Z,28.56
2022-10-18T11:29:14.844Z,28.90
2022-10-18T11:30:14.826Z,29.05
2022-10-18T11:31:14.846Z,29.18
2022-10-18T11:32:14.805Z,29.35
2022-10-18T11:33:14.825Z,29.65
2022-10-18T11:34:14.785Z,29.83
2022-10-18T11:35:14.779Z,29.95
2022-10-18T11:36:14.792Z,30.10
2022-10-18T11:37:28.088Z,30.05
2022-10-18T11:38:15.743Z,29.80
2022-10-18T11:39:14.819Z,29.73
2022-10-18T11:40:14.724Z,29.68
2022-10-18T11:41:14.719Z,29.69
2022-10-18T11:42:14.703Z,29.76
2022-10-18T11:43:14.686Z,29.81
2022-10-18T11:44:14.674Z,29.96
2022-10-18T11:45:14.684Z,29.99
2022-10-18T11:46:14.653Z,30.02
2022-10-18T11:47:14.639Z,29.94
2022-10-18T11:48:14.634Z,28.89
2022-10-18T11:49:14.628Z,28.94
2022-10-18T11:50:14.606Z,28.83
2022-10-18T11:51:14.596Z,28.75
2022-10-18T11:52:14.646Z,28.52
2022-10-18T11:53:14.577Z,28.50
2022-10-18T11:54:14.600Z,28.57
2022-10-18T11:55:14.565Z,28.74
2022-10-18T11:56:14.547Z,28.92
2022-10-18T11:57:14.542Z,28.89
2022-10-18T11:58:14.520Z,28.89
2022-10-18T11:59:14.528Z,29.03
2022-10-18T12:00:14.592Z,29.35
2022-10-18T12:01:14.491Z,29.59
2022-10-18T12:02:14.570Z,30.02
2022-10-18T12:03:14.478Z,30.63
2022-10-18T12:04:14.479Z,31.37
2022-10-18T12:05:29.753Z,32.08
2022-10-18T12:06:15.439Z,32.15
2022-10-18T12:07:14.441Z,31.85
2022-10-18T12:08:14.596Z,30.48
2022-10-18T12:09:14.418Z,28.46
2022-10-18T12:10:16.445Z,29.47
2022-10-18T12:11:15.423Z,30.74
2022-10-18T12:12:14.382Z,31.50
2022-10-18T12:13:14.382Z,32.05
2022-10-18T12:14:14.403Z,32.51
2022-10-18T12:15:14.534Z,32.73
2022-10-18T12:16:14.331Z,32.91
2022-10-18T12:17:40.775Z,32.98
2022-10-18T12:18:15.310Z,32.67
2022-10-18T12:19:14.332Z,32.71
2022-10-18T12:20:14.295Z,33.22
2022-10-18T12:21:14.287Z,33.67
2022-10-18T12:22:14.271Z,33.65
2022-10-18T12:23:14.385Z,33.48
2022-10-18T12:24:14.289Z,33.31
2022-10-18T12:25:14.292Z,33.40
2022-10-18T12:26:14.226Z,33.65
2022-10-18T12:27:14.222Z,33.47
2022-10-18T12:28:14.304Z,32.49
2022-10-18T12:29:14.288Z,31.20
2022-10-18T12:30:14.194Z,29.90
2022-10-18T12:31:14.234Z,30.70
2022-10-18T12:32:14.184Z,31.17
2022-10-18T12:33:27.665Z,29.52
2022-10-18T12:34:15.232Z,27.76
2022-10-18T12:35:14.226Z,27.76
2022-10-18T12:36:14.139Z,28.30
2022-10-18T12:37:14.120Z,27.88
2022-10-18T12:38:14.167Z,29.57
2022-10-18T12:39:14.115Z,30.96
2022-10-18T12:40:17.019Z,31.63
2022-10-18T12:41:15.096Z,31.86
2022-10-18T12:42:14.083Z,32.30
2022-10-18T12:43:14.101Z,31.50
2022-10-18T12:44:14.048Z,30.27
2022-10-18T12:45:14.069Z,29.40
2022-10-18T12:46:14.115Z,27.20
2022-10-18T12:47:14.020Z,28.65
2022-10-18T12:48:14.011Z,27.28
2022-10-18T12:49:14.716Z,26.39
2022-10-18T12:50:14.206Z,26.06
2022-10-18T12:51:13.984Z,25.88
2022-10-18T12:52:14.052Z,27.29
2022-10-18T12:53:14.000Z,29.31
2022-10-18T12:54:13.958Z,30.56